Terminal Aerodrome Forecast
Issued by NWS

Home | Current Version | Previous Version | Text Only | Print | Product List | Glossary On
Versions: 1 2 3 4 5 6 7 8 9 10 11 12 13 14 15 16 17 18 19 20 21 22 23 24 25 26 27 28 29 30 31
000
FTUS46 KLOX 032111 AAB
TAFLAX
TAF AMD
KLAX 032111Z 0321/0424 26012KT P6SM SCT010 SCT022 BKN180
      TEMPO 0321/0323 BKN011
     FM040400 25007KT 5SM HZ BKN010
     FM040900 VRB03KT 5SM BR OVC012
     FM041800 26006KT P6SM SCT015
     FM042000 26012KT P6SM SKC=

USA.gov is the U.S. government's official web portal to all federal, state and local government web resources and services.